Magnus Heinason — OW2252 — position and weather

sailwx.info

Track history (hours):
 
Tides and Currents Weather Stations Pressure Air Temp Water Temp Dewpoint Dewpoint Depression Visibility Wind Speed Wind Dir Waves Ship Positions

Oceanographic research ship Magnus Heinason (Faroe Islands)

Detailed information on ship capabilities available from ARCUS's ALIAS (Arctic Logistics Information and Support) project.

Last reported at 2014-Oct-31 03:33 UTC. Time now 2014-Oct-31 04:11 UTC.
Position N 62°00' W 006°46'.

Length 44 m; draft 4 m.

Type: . MMSI: 231041000.

Date/timePositionNaut miles runAvg speedWind from/ knotsBaromVisibWave heightAir tempDewpointWater temp
2014-Oct-31 03:33N 62°00' W 006°46'0 0.0
2014-Oct-31 02:33N 62°00' W 006°46'0 0.0
2014-Oct-31 01:33N 62°00' W 006°46'0 0.0
2014-Oct-31 00:33N 62°00' W 006°46'0 0.0
2014-Oct-30 23:33N 62°00' W 006°46'0 0.0
2014-Oct-30 22:33N 62°00' W 006°46'0 0.0
2014-Oct-30 21:33N 62°00' W 006°46'0 0.0
2014-Oct-30 20:33N 62°00' W 006°46'0 0.0
2014-Oct-30 19:33N 62°00' W 006°46'0 0.0
2014-Oct-30 18:33N 62°00' W 006°46'0 0.0
2014-Oct-30 17:33N 62°00' W 006°46'0 0.0
2014-Oct-30 16:33N 62°00' W 006°46'0 0.0
2014-Oct-30 15:33N 62°00' W 006°46'0 0.0
2014-Oct-30 14:33N 62°00' W 006°46'0 0.0
2014-Oct-30 13:33N 62°00' W 006°46'0 0.0
2014-Oct-30 12:33N 62°00' W 006°46'0 0.0
2014-Oct-30 11:33N 62°00' W 006°46'0 0.0
2014-Oct-30 10:33N 62°00' W 006°46'0 0.0
2014-Oct-30 09:33N 62°00' W 006°46'0 0.0
2014-Oct-30 08:33N 62°00' W 006°46'0 0.0
2014-Oct-30 07:33N 62°00' W 006°46'0 0.0
2014-Oct-30 06:33N 62°00' W 006°46'0 0.0
2014-Oct-30 05:33N 62°00' W 006°46'0 0.0
2014-Oct-30 04:33N 62°00' W 006°46'0 0.0
2014-Oct-30 03:33N 62°00' W 006°46'0 0.0
2014-Oct-30 02:33N 62°00' W 006°46'0 0.0
2014-Oct-30 01:33N 62°00' W 006°46'0 0.0
2014-Oct-30 00:33N 62°00' W 006°46'0 0.0
2014-Oct-29 23:33N 62°00' W 006°46'0 0.0
2014-Oct-29 22:33N 62°00' W 006°46'0 0.0
2014-Oct-29 21:33N 62°00' W 006°46'0 0.0
2014-Oct-29 20:33N 62°00' W 006°46'0 0.0
2014-Oct-29 19:33N 62°00' W 006°46'0 0.0
2014-Oct-29 18:33N 62°00' W 006°46'0 0.0
2014-Oct-29 17:33N 62°00' W 006°46'0 0.0
2014-Oct-29 16:33N 62°00' W 006°46'0 0.0
2014-Oct-29 15:33N 62°00' W 006°46'6 6.0
2014-Oct-29 14:33N 61°56' W 006°39'9 8.9
2014-Oct-29 13:33N 61°48' W 006°30'1010.1
2014-Oct-29 12:32N 61°38' W 006°23'35 1.1
2014-Oct-28 05:30N 61°41' W 007°37'11 9.4
2014-Oct-28 04:22N 61°50' W 007°49'26 1.4
2014-Oct-27 10:08N 62°15' W 008°02'2 1.1
2014-Oct-27 08:33N 62°15' W 007°59'2 2.1
2014-Oct-27 07:28N 62°17' W 007°55'6 3.1
2014-Oct-27 05:32N 62°22' W 007°48'11 1.4
2014-Oct-26 21:33N 62°28' W 008°07'26 3.6
2014-Oct-26 14:32N 62°26' W 007°12'7 7.1
2014-Oct-26 13:33N 62°22' W 006°59'4 4.2
2014-Oct-26 12:33N 62°19' W 006°53'2 2.3
2014-Oct-26 11:33N 62°18' W 006°49'1 1.1
2014-Oct-26 10:26N 62°18' W 006°52'1 0.8
2014-Oct-26 09:33N 62°18' W 006°50'0 0.5
2014-Oct-26 08:31N 62°19' W 006°51'1 0.7
2014-Oct-26 07:33N 62°19' W 006°50'1 0.8
2014-Oct-26 06:33N 62°19' W 006°51'0 0.4
2014-Oct-26 05:25N 62°19' W 006°51'1 1.3
2014-Oct-26 04:33N 62°20' W 006°51'1 0.8
2014-Oct-26 03:33N 62°19' W 006°51'0 0.4
2014-Oct-26 02:31N 62°19' W 006°51'0 0.3
2014-Oct-26 01:28N 62°19' W 006°52'0 0.4
2014-Oct-26 00:33N 62°19' W 006°52'0 0.5
2014-Oct-25 23:33N 62°19' W 006°53'0 0.2
2014-Oct-25 21:07N 62°19' W 006°53'2 2.6
2014-Oct-25 20:33N 62°21' W 006°54'9 8.8
2014-Oct-25 19:31N 62°27' W 007°07'15 2.4
2014-Oct-25 13:30N 62°42' W 007°08'51 1.3
2014-Oct-23 23:32N 62°07' W 005°48'9 9.7
2014-Oct-23 22:33N 62°04' W 006°07'10 9.6
2014-Oct-23 21:33N 62°02' W 006°27'8 8.3
2014-Oct-23 20:33N 62°00' W 006°44'1 0.9
2014-Oct-23 19:33N 62°00' W 006°46'0 0.0
2014-Oct-23 18:33N 62°00' W 006°46'0 0.0
2014-Oct-23 17:33N 62°00' W 006°46'0 0.0
2014-Oct-23 16:33N 62°00' W 006°46'0 0.0
2014-Oct-23 15:33N 62°00' W 006°46'0 0.0
2014-Oct-23 14:33N 62°00' W 006°46'0 0.0
2014-Oct-23 13:33N 62°00' W 006°46'0 0.0
2014-Oct-23 12:33N 62°00' W 006°46'0 0.0
2014-Oct-23 11:33N 62°00' W 006°46'0 0.0
2014-Oct-23 10:33N 62°00' W 006°46'0 0.0
2014-Oct-23 09:33N 62°00' W 006°46'0 0.0
2014-Oct-23 08:33N 62°00' W 006°46'0 0.0
2014-Oct-23 07:33N 62°00' W 006°46'0 0.0
2014-Oct-23 06:33N 62°00' W 006°46'0 0.0
2014-Oct-23 05:33N 62°00' W 006°46'0 0.0
2014-Oct-23 04:33N 62°00' W 006°46'0 0.0
2014-Oct-23 03:33N 62°00' W 006°46'0 0.0
2014-Oct-23 02:33N 62°00' W 006°46'0 0.0
2014-Oct-23 01:33N 62°00' W 006°46'0 0.0
2014-Oct-23 00:33N 62°00' W 006°46'0 0.0
2014-Oct-22 23:34N 62°00' W 006°46'0 0.0
2014-Oct-22 22:33N 62°00' W 006°46'0 0.0
2014-Oct-22 21:33N 62°00' W 006°46'0 0.0
2014-Oct-22 20:33N 62°00' W 006°46'0 0.0
2014-Oct-22 19:33N 62°00' W 006°46'0 0.0
2014-Oct-22 18:33N 62°00' W 006°46'0 0.0
2014-Oct-22 17:33N 62°00' W 006°46'0 0.0
2014-Oct-22 16:33N 62°00' W 006°46'0 0.0
2014-Oct-22 15:33N 62°00' W 006°46'0 0.0
2014-Oct-22 14:33N 62°00' W 006°46'0 0.0
2014-Oct-22 13:33N 62°00' W 006°46'0 0.0
2014-Oct-22 12:33N 62°00' W 006°46'0 0.0
2014-Oct-22 11:33N 62°00' W 006°46'0 0.0
2014-Oct-22 10:33N 62°00' W 006°46'0 0.0
2014-Oct-22 09:33N 62°00' W 006°46'0 0.0
2014-Oct-22 08:33N 62°00' W 006°46'0 0.0
2014-Oct-22 07:33N 62°00' W 006°46'0 0.0
2014-Oct-22 06:33N 62°00' W 006°46'0 0.0
2014-Oct-22 05:33N 62°00' W 006°46'0 0.0
2014-Oct-22 04:33N 62°00' W 006°46'0 0.0
2014-Oct-22 03:33N 62°00' W 006°46'0 0.0
2014-Oct-22 02:33N 62°00' W 006°46'0 0.0
2014-Oct-22 01:33N 62°00' W 006°46'0 0.0
2014-Oct-22 00:33N 62°00' W 006°46'0 0.0
2014-Oct-21 23:33N 62°00' W 006°46'0 0.0
2014-Oct-21 22:33N 62°00' W 006°46'0 0.0
2014-Oct-21 21:33N 62°00' W 006°46'0 0.0
2014-Oct-21 20:33N 62°00' W 006°46'0 0.0
2014-Oct-21 19:33N 62°00' W 006°46'0 0.0
2014-Oct-21 18:33N 62°00' W 006°46'0 0.0
2014-Oct-21 17:33N 62°00' W 006°46'0 0.0
2014-Oct-21 16:32N 62°00' W 006°46'0 0.0
2014-Oct-21 15:33N 62°00' W 006°46'0 0.0
2014-Oct-21 14:33N 62°00' W 006°46'0 0.0
2014-Oct-21 13:33N 62°00' W 006°46'0 0.0
2014-Oct-21 12:33N 62°00' W 006°46'4 4.5
2014-Oct-21 11:33N 62°04' W 006°40'9 8.9
2014-Oct-21 10:33N 62°09' W 006°24'7 7.4
2014-Oct-21 09:33N 62°10' W 006°09'2 1.6
2014-Oct-21 08:33N 62°10' W 006°12'3 2.7
2014-Oct-21 07:33N 62°11' W 006°18'3 3.3
2014-Oct-21 06:33N 62°11' W 006°11'1 1.1
2014-Oct-21 05:33N 62°10' W 006°13'2 2.2
2014-Oct-21 04:33N 62°11' W 006°17'  
Track history (hours):
 
Tides and Currents Weather Stations Pressure Air Temp Water Temp Dewpoint Dewpoint Depression Visibility Wind Speed Wind Dir Waves Ship Positions

Oceanographic research ship Magnus Heinason (Faroe Islands)

Detailed information on ship capabilities available from ARCUS's ALIAS (Arctic Logistics Information and Support) project.

Last reported at 2014-Oct-31 03:33 UTC. Time now 2014-Oct-31 04:11 UTC.
Position N 62°00' W 006°46'.

Length 44 m; draft 4 m.

Type: . MMSI: 231041000.

Date/timePositionNaut miles runAvg speedWind from/ knotsBaromVisibWave heightAir tempDewpointWater temp
2014-Oct-31 03:33N 62°00' W 006°46'0 0.0
2014-Oct-31 02:33N 62°00' W 006°46'0 0.0
2014-Oct-31 01:33N 62°00' W 006°46'0 0.0
2014-Oct-31 00:33N 62°00' W 006°46'0 0.0
2014-Oct-30 23:33N 62°00' W 006°46'0 0.0
2014-Oct-30 22:33N 62°00' W 006°46'0 0.0
2014-Oct-30 21:33N 62°00' W 006°46'0 0.0
2014-Oct-30 20:33N 62°00' W 006°46'0 0.0
2014-Oct-30 19:33N 62°00' W 006°46'0 0.0
2014-Oct-30 18:33N 62°00' W 006°46'0 0.0
2014-Oct-30 17:33N 62°00' W 006°46'0 0.0
2014-Oct-30 16:33N 62°00' W 006°46'0 0.0
2014-Oct-30 15:33N 62°00' W 006°46'0 0.0
2014-Oct-30 14:33N 62°00' W 006°46'0 0.0
2014-Oct-30 13:33N 62°00' W 006°46'0 0.0
2014-Oct-30 12:33N 62°00' W 006°46'0 0.0
2014-Oct-30 11:33N 62°00' W 006°46'0 0.0
2014-Oct-30 10:33N 62°00' W 006°46'0 0.0
2014-Oct-30 09:33N 62°00' W 006°46'0 0.0
2014-Oct-30 08:33N 62°00' W 006°46'0 0.0
2014-Oct-30 07:33N 62°00' W 006°46'0 0.0
2014-Oct-30 06:33N 62°00' W 006°46'0 0.0
2014-Oct-30 05:33N 62°00' W 006°46'0 0.0
2014-Oct-30 04:33N 62°00' W 006°46'0 0.0
2014-Oct-30 03:33N 62°00' W 006°46'0 0.0
2014-Oct-30 02:33N 62°00' W 006°46'0 0.0
2014-Oct-30 01:33N 62°00' W 006°46'0 0.0
2014-Oct-30 00:33N 62°00' W 006°46'0 0.0
2014-Oct-29 23:33N 62°00' W 006°46'0 0.0
2014-Oct-29 22:33N 62°00' W 006°46'0 0.0
2014-Oct-29 21:33N 62°00' W 006°46'0 0.0
2014-Oct-29 20:33N 62°00' W 006°46'0 0.0
2014-Oct-29 19:33N 62°00' W 006°46'0 0.0
2014-Oct-29 18:33N 62°00' W 006°46'0 0.0
2014-Oct-29 17:33N 62°00' W 006°46'0 0.0
2014-Oct-29 16:33N 62°00' W 006°46'0 0.0
2014-Oct-29 15:33N 62°00' W 006°46'6 6.0
2014-Oct-29 14:33N 61°56' W 006°39'9 8.9
2014-Oct-29 13:33N 61°48' W 006°30'1010.1
2014-Oct-29 12:32N 61°38' W 006°23'35 1.1
2014-Oct-28 05:30N 61°41' W 007°37'11 9.4
2014-Oct-28 04:22N 61°50' W 007°49'26 1.4
2014-Oct-27 10:08N 62°15' W 008°02'2 1.1
2014-Oct-27 08:33N 62°15' W 007°59'2 2.1
2014-Oct-27 07:28N 62°17' W 007°55'6 3.1
2014-Oct-27 05:32N 62°22' W 007°48'11 1.4
2014-Oct-26 21:33N 62°28' W 008°07'26 3.6
2014-Oct-26 14:32N 62°26' W 007°12'7 7.1
2014-Oct-26 13:33N 62°22' W 006°59'4 4.2
2014-Oct-26 12:33N 62°19' W 006°53'2 2.3
2014-Oct-26 11:33N 62°18' W 006°49'1 1.1
2014-Oct-26 10:26N 62°18' W 006°52'1 0.8
2014-Oct-26 09:33N 62°18' W 006°50'0 0.5
2014-Oct-26 08:31N 62°19' W 006°51'1 0.7
2014-Oct-26 07:33N 62°19' W 006°50'1 0.8
2014-Oct-26 06:33N 62°19' W 006°51'0 0.4
2014-Oct-26 05:25N 62°19' W 006°51'1 1.3
2014-Oct-26 04:33N 62°20' W 006°51'1 0.8
2014-Oct-26 03:33N 62°19' W 006°51'0 0.4
2014-Oct-26 02:31N 62°19' W 006°51'0 0.3
2014-Oct-26 01:28N 62°19' W 006°52'0 0.4
2014-Oct-26 00:33N 62°19' W 006°52'0 0.5
2014-Oct-25 23:33N 62°19' W 006°53'0 0.2
2014-Oct-25 21:07N 62°19' W 006°53'2 2.6
2014-Oct-25 20:33N 62°21' W 006°54'9 8.8
2014-Oct-25 19:31N 62°27' W 007°07'15 2.4
2014-Oct-25 13:30N 62°42' W 007°08'51 1.3
2014-Oct-23 23:32N 62°07' W 005°48'9 9.7
2014-Oct-23 22:33N 62°04' W 006°07'10 9.6
2014-Oct-23 21:33N 62°02' W 006°27'8 8.3
2014-Oct-23 20:33N 62°00' W 006°44'1 0.9
2014-Oct-23 19:33N 62°00' W 006°46'0 0.0
2014-Oct-23 18:33N 62°00' W 006°46'0 0.0
2014-Oct-23 17:33N 62°00' W 006°46'0 0.0
2014-Oct-23 16:33N 62°00' W 006°46'0 0.0
2014-Oct-23 15:33N 62°00' W 006°46'0 0.0
2014-Oct-23 14:33N 62°00' W 006°46'0 0.0
2014-Oct-23 13:33N 62°00' W 006°46'0 0.0
2014-Oct-23 12:33N 62°00' W 006°46'0 0.0
2014-Oct-23 11:33N 62°00' W 006°46'0 0.0
2014-Oct-23 10:33N 62°00' W 006°46'0 0.0
2014-Oct-23 09:33N 62°00' W 006°46'0 0.0
2014-Oct-23 08:33N 62°00' W 006°46'0 0.0
2014-Oct-23 07:33N 62°00' W 006°46'0 0.0
2014-Oct-23 06:33N 62°00' W 006°46'0 0.0
2014-Oct-23 05:33N 62°00' W 006°46'0 0.0
2014-Oct-23 04:33N 62°00' W 006°46'0 0.0
2014-Oct-23 03:33N 62°00' W 006°46'0 0.0
2014-Oct-23 02:33N 62°00' W 006°46'0 0.0
2014-Oct-23 01:33N 62°00' W 006°46'0 0.0
2014-Oct-23 00:33N 62°00' W 006°46'0 0.0
2014-Oct-22 23:34N 62°00' W 006°46'0 0.0
2014-Oct-22 22:33N 62°00' W 006°46'0 0.0
2014-Oct-22 21:33N 62°00' W 006°46'0 0.0
2014-Oct-22 20:33N 62°00' W 006°46'0 0.0
2014-Oct-22 19:33N 62°00' W 006°46'0 0.0
2014-Oct-22 18:33N 62°00' W 006°46'0 0.0
2014-Oct-22 17:33N 62°00' W 006°46'0 0.0
2014-Oct-22 16:33N 62°00' W 006°46'0 0.0
2014-Oct-22 15:33N 62°00' W 006°46'0 0.0
2014-Oct-22 14:33N 62°00' W 006°46'0 0.0
2014-Oct-22 13:33N 62°00' W 006°46'0 0.0
2014-Oct-22 12:33N 62°00' W 006°46'0 0.0
2014-Oct-22 11:33N 62°00' W 006°46'0 0.0
2014-Oct-22 10:33N 62°00' W 006°46'0 0.0
2014-Oct-22 09:33N 62°00' W 006°46'0 0.0
2014-Oct-22 08:33N 62°00' W 006°46'0 0.0
2014-Oct-22 07:33N 62°00' W 006°46'0 0.0
2014-Oct-22 06:33N 62°00' W 006°46'0 0.0
2014-Oct-22 05:33N 62°00' W 006°46'0 0.0
2014-Oct-22 04:33N 62°00' W 006°46'0 0.0
2014-Oct-22 03:33N 62°00' W 006°46'0 0.0
2014-Oct-22 02:33N 62°00' W 006°46'0 0.0
2014-Oct-22 01:33N 62°00' W 006°46'0 0.0
2014-Oct-22 00:33N 62°00' W 006°46'0 0.0
2014-Oct-21 23:33N 62°00' W 006°46'0 0.0
2014-Oct-21 22:33N 62°00' W 006°46'0 0.0
2014-Oct-21 21:33N 62°00' W 006°46'0 0.0
2014-Oct-21 20:33N 62°00' W 006°46'0 0.0
2014-Oct-21 19:33N 62°00' W 006°46'0 0.0
2014-Oct-21 18:33N 62°00' W 006°46'0 0.0
2014-Oct-21 17:33N 62°00' W 006°46'0 0.0
2014-Oct-21 16:32N 62°00' W 006°46'0 0.0
2014-Oct-21 15:33N 62°00' W 006°46'0 0.0
2014-Oct-21 14:33N 62°00' W 006°46'0 0.0
2014-Oct-21 13:33N 62°00' W 006°46'0 0.0
2014-Oct-21 12:33N 62°00' W 006°46'4 4.5
2014-Oct-21 11:33N 62°04' W 006°40'9 8.9
2014-Oct-21 10:33N 62°09' W 006°24'7 7.4
2014-Oct-21 09:33N 62°10' W 006°09'2 1.6
2014-Oct-21 08:33N 62°10' W 006°12'3 2.7
2014-Oct-21 07:33N 62°11' W 006°18'3 3.3
2014-Oct-21 06:33N 62°11' W 006°11'1 1.1
2014-Oct-21 05:33N 62°10' W 006°13'2 2.2
2014-Oct-21 04:33N 62°11' W 006°17'  

Dump ship's entire track history